Time;durP1;ratioP1;P1;durP2;ratioP2;P2;SDS_P1;SDS_P2;PMS_P1;PMS_P2;Temp;Humidity;BMP_temperature;BMP_pressure;BME280_temperature;BME280_humidity;BME280_pressure;Samples;Min_cycle;Max_cycle;Signal;HPM_P1;HPM_P2
2023/03/23 00:01:49;;;;;;;;;;;;;;;;;;5013418;28;19979;-62
2023/03/23 00:04:16;;;;;;;;;;;;;;;;;;5013621;28;19932;-62
2023/03/23 00:06:44;;;;;;;;;;;;;;;;;;5013425;28;19925;-62
2023/03/23 00:09:11;;;;;;;;;;;;;;;;;;5027324;28;19932;-62
2023/03/23 00:11:39;;;;;;;;;;;;;;;;;;5012980;28;19927;-62
2023/03/23 00:14:12;;;;;;;;;;;;;;;;;;5021967;28;19925;-62
2023/03/23 00:16:40;;;;;;;;;;;;;;;;;;5032007;28;20370;-62
2023/03/23 00:19:07;;;;;;;;;;;;;;;;;;5032646;28;20016;-62
2023/03/23 00:21:34;;;;;;;;;;;;;;;;;;5028197;28;19932;-62
2023/03/23 00:24:01;;;;;;;;;;;;;;;;;;5033119;28;19924;-62
2023/03/23 00:26:29;;;;;;;;;;;;;;;;;;5029138;28;19932;-62
2023/03/23 00:28:56;;;;;;;;;;;;;;;;;;5029613;28;19925;-62
2023/03/23 00:31:23;;;;;;;;;;;;;;;;;;5032577;28;19925;-62
2023/03/23 00:33:50;;;;;;;;;;;;;;;;;;5032406;28;19925;-62
2023/03/23 00:36:17;;;;;;;;;;;;;;;;;;5032562;28;19929;-62
2023/03/23 00:38:46;;;;;;;;;;;;;;;;;;5032833;28;20383;-62
2023/03/23 00:41:15;;;;;;;;;;;;;;;;;;5029000;28;19925;-62
2023/03/23 00:43:41;;;;;;;;;;;;;;;;;;5029504;28;19930;-62
2023/03/23 00:46:09;;;;;;;;;;;;;;;;;;5032519;28;19932;-62
2023/03/23 00:48:36;;;;;;;;;;;;;;;;;;5032847;28;19925;-62
2023/03/23 00:51:05;;;;;;;;;;;;;;;;;;5031423;28;19964;-62
2023/03/23 00:53:32;;;;;;;;;;;;;;;;;;5032346;28;19933;-62
2023/03/23 00:55:59;;;;;;;;;;;;;;;;;;5018084;28;20403;-62
2023/03/23 00:58:26;;;;;;;;;;;;;;;;;;5032538;28;19933;-62
2023/03/23 01:00:53;;;;;;;;;;;;;;;;;;5032230;28;19932;-62
2023/03/23 01:03:20;;;;;;;;;;;;;;;;;;5031902;28;20327;-62
2023/03/23 01:05:47;;;;;;;;;;;;;;;;;;5032404;28;19925;-62
2023/03/23 01:08:14;;;;;;;;;;;;;;;;;;5032533;28;19965;-62
2023/03/23 01:10:41;;;;;;;;;;;;;;;;;;5028385;28;19925;-62
2023/03/23 01:13:08;;;;;;;;;;;;;;;;;;5030776;28;19925;-62
2023/03/23 01:15:35;;;;;;;;;;;;;;;;;;5032482;28;19940;-62
2023/03/23 01:18:02;;;;;;;;;;;;;;;;;;5031572;28;20405;-62
2023/03/23 01:20:31;;;;;;;;;;;;;;;;;;5028090;28;19932;-62
2023/03/23 01:23:00;;;;;;;;;;;;;;;;;;5031920;28;20452;-62
2023/03/23 01:25:27;;;;;;;;;;;;;;;;;;5028599;28;19935;-62
2023/03/23 01:27:54;;;;;;;;;;;;;;;;;;5032608;28;19932;-62
2023/03/23 01:30:20;;;;;;;;;;;;;;;;;;5033404;28;20019;-62
2023/03/23 01:32:47;;;;;;;;;;;;;;;;;;5035939;28;19933;-62
2023/03/23 01:35:14;;;;;;;;;;;;;;;;;;5036106;28;19925;-62
2023/03/23 01:37:41;;;;;;;;;;;;;;;;;;5035673;28;19968;-62
2023/03/23 01:40:09;;;;;;;;;;;;;;;;;;5036102;28;19932;-62
2023/03/23 01:42:36;;;;;;;;;;;;;;;;;;5035952;28;20300;-62
2023/03/23 01:45:03;;;;;;;;;;;;;;;;;;5028346;28;19932;-62
2023/03/23 01:47:30;;;;;;;;;;;;;;;;;;5033834;28;20291;-62
2023/03/23 01:49:56;;;;;;;;;;;;;;;;;;5036068;28;20299;-62
2023/03/23 01:52:23;;;;;;;;;;;;;;;;;;5034595;28;19932;-62
2023/03/23 01:54:50;;;;;;;;;;;;;;;;;;5035425;28;20403;-62
2023/03/23 01:57:17;;;;;;;;;;;;;;;;;;5031599;28;19925;-62
2023/03/23 01:59:44;;;;;;;;;;;;;;;;;;5036021;28;19983;-62
2023/03/23 02:02:12;;;;;;;;;;;;;;;;;;5019944;28;20379;-62
2023/03/23 02:04:39;;;;;;;;;;;;;;;;;;5014849;28;19926;-62
2023/03/23 02:07:06;;;;;;;;;;;;;;;;;;5014409;28;19940;-62
2023/03/23 02:09:33;;;;;;;;;;;;;;;;;;5035120;28;19929;-62
2023/03/23 02:12:00;;;;;;;;;;;;;;;;;;5035456;28;19932;-62
2023/03/23 02:14:26;;;;;;;;;;;;;;;;;;5032011;28;20395;-62
2023/03/23 02:16:53;;;;;;;;;;;;;;;;;;5034650;28;19925;-62
2023/03/23 02:19:23;;;;;;;;;;;;;;;;;;5031870;28;19932;-61
2023/03/23 02:21:50;;;;;;;;;;;;;;;;;;5031520;28;19925;-61
2023/03/23 02:24:17;;;;;;;;;;;;;;;;;;5035260;28;20003;-61
2023/03/23 02:26:44;;;;;;;;;;;;;;;;;;5032077;28;19932;-61
2023/03/23 02:29:12;;;;;;;;;;;;;;;;;;5031978;28;20019;-61
2023/03/23 02:31:39;;;;;;;;;;;;;;;;;;5034775;28;19929;-61
2023/03/23 02:34:06;;;;;;;;;;;;;;;;;;5031311;28;19925;-61
2023/03/23 02:36:33;;;;;;;;;;;;;;;;;;5033737;28;20406;-61
2023/03/23 02:39:00;;;;;;;;;;;;;;;;;;5031589;28;19932;-61
2023/03/23 02:41:27;;;;;;;;;;;;;;;;;;5034106;28;20295;-61
2023/03/23 02:43:53;;;;;;;;;;;;;;;;;;5034868;28;19925;-61
2023/03/23 02:46:20;;;;;;;;;;;;;;;;;;5031858;28;20382;-61
2023/03/23 02:48:48;;;;;;;;;;;;;;;;;;5032434;28;19925;-61
2023/03/23 02:51:15;;;;;;;;;;;;;;;;;;5033995;28;19925;-61
2023/03/23 02:53:41;;;;;;;;;;;;;;;;;;5034544;28;19925;-61
2023/03/23 02:56:08;;;;;;;;;;;;;;;;;;5033999;28;19925;-61
2023/03/23 02:58:35;;;;;;;;;;;;;;;;;;5034504;28;19925;-61
2023/03/23 03:01:03;;;;;;;;;;;;;;;;;;5028624;28;20390;-61
2023/03/23 03:03:30;;;;;;;;;;;;;;;;;;5034415;28;19932;-61
2023/03/23 03:05:59;;;;;;;;;;;;;;;;;;5015650;28;19926;-61
2023/03/23 03:08:26;;;;;;;;;;;;;;;;;;4995356;28;19961;-61
2023/03/23 03:10:53;;;;;;;;;;;;;;;;;;4994185;28;19959;-61
2023/03/23 03:13:20;;;;;;;;;;;;;;;;;;4993157;28;19925;-61
2023/03/23 03:15:47;;;;;;;;;;;;;;;;;;4994848;28;19930;-58
2023/03/23 03:18:14;;;;;;;;;;;;;;;;;;5064209;23;19931;-63
2023/03/23 03:20:41;;;;;;;;;;;;;;;;;;5053639;28;20506;-63
2023/03/23 03:23:09;;;;;;;;;;;;;;;;;;5074317;28;19931;-63
2023/03/23 03:25:36;;;;;;;;;;;;;;;;;;5074119;28;20404;-63
2023/03/23 03:28:03;;;;;;;;;;;;;;;;;;5068669;28;19931;-63
2023/03/23 03:30:30;;;;;;;;;;;;;;;;;;5033817;28;19928;-63
2023/03/23 03:33:00;;;;;;;;;;;;;;;;;;5033776;28;20382;-63
2023/03/23 03:35:26;;;;;;;;;;;;;;;;;;5033541;28;19925;-63
2023/03/23 03:37:53;;;;;;;;;;;;;;;;;;5047152;28;19924;-63
2023/03/23 03:40:20;;;;;;;;;;;;;;;;;;5074283;28;19936;-63
2023/03/23 03:42:47;;;;;;;;;;;;;;;;;;5071610;28;19925;-63
2023/03/23 03:45:14;;;;;;;;;;;;;;;;;;5062040;28;19931;-63
2023/03/23 03:47:41;;;;;;;;;;;;;;;;;;5073885;28;19978;-63
2023/03/23 03:50:08;;;;;;;;;;;;;;;;;;5070273;28;19931;-63
2023/03/23 03:52:35;;;;;;;;;;;;;;;;;;5073200;28;19978;-63
2023/03/23 03:55:02;;;;;;;;;;;;;;;;;;5062250;28;19924;-63
2023/03/23 03:57:29;;;;;;;;;;;;;;;;;;5070045;28;20201;-63
2023/03/23 03:59:56;;;;;;;;;;;;;;;;;;5073376;28;20275;-63
2023/03/23 04:02:23;;;;;;;;;;;;;;;;;;5072881;28;20416;-63
2023/03/23 04:04:52;;;;;;;;;;;;;;;;;;5073417;28;19929;-63
2023/03/23 04:07:19;;;;;;;;;;;;;;;;;;5073206;28;20023;-63
2023/03/23 04:09:47;;;;;;;;;;;;;;;;;;5061675;28;19929;-63
2023/03/23 04:12:14;;;;;;;;;;;;;;;;;;5062263;28;19925;-63
2023/03/23 04:14:41;;;;;;;;;;;;;;;;;;5073257;28;19925;-64
2023/03/23 04:17:08;;;;;;;;;;;;;;;;;;5072403;28;20406;-64
2023/03/23 04:19:36;;;;;;;;;;;;;;;;;;5072615;28;20341;-63
2023/03/23 04:22:03;;;;;;;;;;;;;;;;;;5072675;28;19924;-64
2023/03/23 04:24:31;;;;;;;;;;;;;;;;;;5073109;28;19935;-63
2023/03/23 04:26:58;;;;;;;;;;;;;;;;;;5059728;28;20420;-63
2023/03/23 04:29:26;;;;;;;;;;;;;;;;;;5050378;28;19924;-63
2023/03/23 04:31:55;;;;;;;;;;;;;;;;;;5052765;28;19925;-63
2023/03/23 04:34:22;;;;;;;;;;;;;;;;;;5052445;28;20019;-63
2023/03/23 04:36:49;;;;;;;;;;;;;;;;;;5052327;28;19925;-63
2023/03/23 04:39:16;;;;;;;;;;;;;;;;;;5052659;28;20283;-62
2023/03/23 04:41:43;;;;;;;;;;;;;;;;;;5061839;28;19931;-63
2023/03/23 04:44:10;;;;;;;;;;;;;;;;;;5070883;28;19929;-64
2023/03/23 04:46:38;;;;;;;;;;;;;;;;;;5062230;28;19929;-63
2023/03/23 04:49:05;;;;;;;;;;;;;;;;;;5052729;28;19931;-63
2023/03/23 04:51:32;;;;;;;;;;;;;;;;;;5052243;28;19925;-63
2023/03/23 04:53:59;;;;;;;;;;;;;;;;;;5051771;28;20344;-63
2023/03/23 04:56:26;;;;;;;;;;;;;;;;;;5052331;28;19932;-63
2023/03/23 04:58:53;;;;;;;;;;;;;;;;;;5065764;28;20401;-63
2023/03/23 05:01:21;;;;;;;;;;;;;;;;;;5051858;28;19928;-63
2023/03/23 05:03:48;;;;;;;;;;;;;;;;;;5051950;28;20481;-63
2023/03/23 05:06:15;;;;;;;;;;;;;;;;;;5061718;28;19924;-63
2023/03/23 05:08:42;;;;;;;;;;;;;;;;;;5072378;28;20019;-63
2023/03/23 05:11:09;;;;;;;;;;;;;;;;;;5072715;28;19925;-63
2023/03/23 05:13:36;;;;;;;;;;;;;;;;;;5071801;28;19925;-63
2023/03/23 05:16:03;;;;;;;;;;;;;;;;;;5065880;28;19947;-63
2023/03/23 05:18:29;;;;;;;;;;;;;;;;;;5066122;28;19999;-63
2023/03/23 05:20:56;;;;;;;;;;;;;;;;;;5068041;28;20344;-63
2023/03/23 05:23:24;;;;;;;;;;;;;;;;;;5071390;28;19935;-63
2023/03/23 05:25:52;;;;;;;;;;;;;;;;;;5071728;28;19928;-65
2023/03/23 05:28:21;;;;;;;;;;;;;;;;;;5071735;28;19932;-63
2023/03/23 05:30:48;;;;;;;;;;;;;;;;;;5068221;28;19925;-63
2023/03/23 05:33:15;;;;;;;;;;;;;;;;;;5071989;28;19924;-63
2023/03/23 05:35:42;;;;;;;;;;;;;;;;;;5070993;28;19932;-63
2023/03/23 05:38:09;;;;;;;;;;;;;;;;;;5068620;28;19924;-63
2023/03/23 05:40:37;;;;;;;;;;;;;;;;;;5072286;28;19924;-63
2023/03/23 05:43:04;;;;;;;;;;;;;;;;;;5071540;28;20439;-63
2023/03/23 05:45:31;;;;;;;;;;;;;;;;;;5061248;28;19928;-63
2023/03/23 05:47:58;;;;;;;;;;;;;;;;;;5071513;28;19925;-63
2023/03/23 05:50:25;;;;;;;;;;;;;;;;;;5069426;28;19924;-63
2023/03/23 05:52:51;;;;;;;;;;;;;;;;;;5051574;28;20310;-63
2023/03/23 05:55:19;;;;;;;;;;;;;;;;;;5052084;28;19925;-63
2023/03/23 05:57:46;;;;;;;;;;;;;;;;;;5051564;28;20352;-64
2023/03/23 06:00:19;;;;;;;;;;;;;;;;;;5051553;28;19925;-63
2023/03/23 06:02:46;;;;;;;;;;;;;;;;;;5065217;28;19930;-63
2023/03/23 06:05:13;;;;;;;;;;;;;;;;;;5071969;28;19924;-63
2023/03/23 06:07:40;;;;;;;;;;;;;;;;;;5071638;28;19930;-63
2023/03/23 06:10:08;;;;;;;;;;;;;;;;;;5071914;28;20329;-63
2023/03/23 06:12:35;;;;;;;;;;;;;;;;;;5071602;28;19931;-63
2023/03/23 06:15:03;;;;;;;;;;;;;;;;;;5074248;28;19932;-63
2023/03/23 06:17:30;;;;;;;;;;;;;;;;;;5070898;28;19925;-63
2023/03/23 06:19:57;;;;;;;;;;;;;;;;;;5066692;28;19928;-63
2023/03/23 06:22:24;;;;;;;;;;;;;;;;;;5056385;28;19925;-63
2023/03/23 06:24:51;;;;;;;;;;;;;;;;;;5038207;28;19929;-63
2023/03/23 06:27:18;;;;;;;;;;;;;;;;;;5054347;28;19925;-63
2023/03/23 06:29:46;;;;;;;;;;;;;;;;;;5048474;28;19936;-63
2023/03/23 06:32:13;;;;;;;;;;;;;;;;;;5049788;28;19933;-63
2023/03/23 06:34:43;;;;;;;;;;;;;;;;;;5053498;28;19925;-63
2023/03/23 06:37:10;;;;;;;;;;;;;;;;;;5051359;28;19994;-62
2023/03/23 06:39:38;;;;;;;;;;;;;;;;;;5053023;28;19925;-61
2023/03/23 06:42:05;;;;;;;;;;;;;;;;;;5053429;28;19928;-61
2023/03/23 06:44:32;;;;;;;;;;;;;;;;;;5052412;28;20400;-60
2023/03/23 06:46:59;;;;;;;;;;;;;;;;;;5053821;28;19933;-60
2023/03/23 06:49:26;;;;;;;;;;;;;;;;;;5051552;28;19924;-63
2023/03/23 06:51:52;;;;;;;;;;;;;;;;;;5052503;28;19929;-62
2023/03/23 06:54:19;;;;;;;;;;;;;;;;;;5053136;28;19925;-62
2023/03/23 06:56:46;;;;;;;;;;;;;;;;;;5053047;28;19925;-63
2023/03/23 06:59:13;;;;;;;;;;;;;;;;;;5052050;28;20019;-64
2023/03/23 07:01:40;;;;;;;;;;;;;;;;;;5052791;28;20403;-63
2023/03/23 07:04:07;;;;;;;;;;;;;;;;;;5054791;28;20123;-64
2023/03/23 07:06:34;;;;;;;;;;;;;;;;;;5058013;28;20386;-63
2023/03/23 07:09:01;;;;;;;;;;;;;;;;;;5064451;28;19936;-61
2023/03/23 07:11:28;;;;;;;;;;;;;;;;;;5052619;28;19932;-60
2023/03/23 07:13:55;;;;;;;;;;;;;;;;;;5054005;28;19978;-60
2023/03/23 07:16:22;;;;;;;;;;;;;;;;;;5060628;28;20046;-60
2023/03/23 07:18:49;;;;;;;;;;;;;;;;;;5050034;28;19925;-60
2023/03/23 07:21:16;;;;;;;;;;;;;;;;;;5050756;28;20041;-60
2023/03/23 07:23:46;;;;;;;;;;;;;;;;;;5051945;28;19925;-62
2023/03/23 07:26:13;;;;;;;;;;;;;;;;;;5051306;28;20414;-62
2023/03/23 07:28:40;;;;;;;;;;;;;;;;;;5048313;28;20020;-62
2023/03/23 07:31:08;;;;;;;;;;;;;;;;;;5052614;28;19959;-63
2023/03/23 07:33:35;;;;;;;;;;;;;;;;;;5053800;28;19925;-63
2023/03/23 07:36:02;;;;;;;;;;;;;;;;;;5055157;28;20019;-62
2023/03/23 07:38:30;;;;;;;;;;;;;;;;;;5053543;28;20387;-61
2023/03/23 07:40:57;;;;;;;;;;;;;;;;;;5053560;28;19925;-61
2023/03/23 07:43:24;;;;;;;;;;;;;;;;;;5053801;28;19965;-61
2023/03/23 07:45:51;;;;;;;;;;;;;;;;;;5053188;28;19936;-61
2023/03/23 07:48:18;;;;;;;;;;;;;;;;;;5050177;28;19945;-62
2023/03/23 07:50:46;;;;;;;;;;;;;;;;;;5073595;28;20322;-62
2023/03/23 07:53:13;;;;;;;;;;;;;;;;;;5069297;28;19939;-61
2023/03/23 07:55:40;;;;;;;;;;;;;;;;;;5073662;28;19946;-62
2023/03/23 07:58:08;;;;;;;;;;;;;;;;;;5072804;28;19964;-61
2023/03/23 08:00:35;;;;;;;;;;;;;;;;;;5073333;28;19944;-61
2023/03/23 08:03:02;;;;;;;;;;;;;;;;;;5063875;28;20391;-61
2023/03/23 08:05:29;;;;;;;;;;;;;;;;;;5052578;28;19956;-61
2023/03/23 08:07:56;;;;;;;;;;;;;;;;;;5071194;28;19957;-62
2023/03/23 08:10:23;;;;;;;;;;;;;;;;;;5062883;28;20030;-62
2023/03/23 08:12:50;;;;;;;;;;;;;;;;;;5072317;28;19944;-62
2023/03/23 08:15:17;;;;;;;;;;;;;;;;;;5064840;28;19950;-62
2023/03/23 08:17:44;;;;;;;;;;;;;;;;;;5061214;28;19925;-61
2023/03/23 08:20:12;;;;;;;;;;;;;;;;;;5052925;28;20360;-61
2023/03/23 08:22:39;;;;;;;;;;;;;;;;;;5062556;28;19924;-61
2023/03/23 08:25:07;;;;;;;;;;;;;;;;;;5072175;28;20004;-61
2023/03/23 08:27:33;;;;;;;;;;;;;;;;;;5051394;28;20398;-61
2023/03/23 08:30:00;;;;;;;;;;;;;;;;;;5052241;28;19932;-62
2023/03/23 08:32:27;;;;;;;;;;;;;;;;;;5060473;28;19931;-61
2023/03/23 08:34:54;;;;;;;;;;;;;;;;;;5072644;28;20297;-61
2023/03/23 08:37:21;;;;;;;;;;;;;;;;;;5065518;28;19925;-61
2023/03/23 08:39:48;;;;;;;;;;;;;;;;;;5064414;28;20377;-61
2023/03/23 08:42:15;;;;;;;;;;;;;;;;;;5061491;28;19924;-62
2023/03/23 08:44:42;;;;;;;;;;;;;;;;;;5071489;28;19981;-62
2023/03/23 08:49:09;;;;;;;;;;;;;;;;;;5070265;28;19927;-61
2023/03/23 08:51:36;;;;;;;;;;;;;;;;;;5069257;28;20390;-63
2023/03/23 08:54:03;;;;;;;;;;;;;;;;;;5069533;28;19924;-63
2023/03/23 08:56:30;;;;;;;;;;;;;;;;;;5069522;28;19924;-63
2023/03/23 08:58:57;;;;;;;;;;;;;;;;;;5067404;28;19925;-63
